sensor_id;sensor_type;location;lat;lon;timestamp;pressure;altitude;pressure_sealevel;temperature;humidity
48424;BME280;34232;42.502;26.014;2022-08-11T00:01:14;99908.56;;;24.28;48.97
48424;BME280;34232;42.502;26.014;2022-08-11T00:03:42;99904.66;;;24.24;49.24
48424;BME280;34232;42.502;26.014;2022-08-11T00:06:08;99904.22;;;24.27;49.20
48424;BME280;34232;42.502;26.014;2022-08-11T00:08:34;99911.25;;;24.28;49.09
48424;BME280;34232;42.502;26.014;2022-08-11T00:11:01;99913.34;;;24.26;49.11
48424;BME280;34232;42.502;26.014;2022-08-11T00:15:58;99912.91;;;24.29;49.09
48424;BME280;34232;42.502;26.014;2022-08-11T00:18:24;99909.59;;;24.27;49.12
48424;BME280;34232;42.502;26.014;2022-08-11T00:20:50;99911.47;;;24.20;48.85
48424;BME280;34232;42.502;26.014;2022-08-11T00:23:17;99910.44;;;24.21;49.01
48424;BME280;34232;42.502;26.014;2022-08-11T00:25:46;99911.47;;;24.27;48.92
48424;BME280;34232;42.502;26.014;2022-08-11T00:30:51;99906.63;;;24.35;49.05
48424;BME280;34232;42.502;26.014;2022-08-11T00:33:16;99910.38;;;24.34;48.78
48424;BME280;34232;42.502;26.014;2022-08-11T00:35:42;99906.03;;;24.33;48.68
48424;BME280;34232;42.502;26.014;2022-08-11T00:38:09;99911.56;;;24.38;48.79
48424;BME280;34232;42.502;26.014;2022-08-11T00:40:50;99913.22;;;24.39;48.92
48424;BME280;34232;42.502;26.014;2022-08-11T00:48:30;99912.00;;;24.35;48.90
48424;BME280;34232;42.502;26.014;2022-08-11T00:53:48;99912.81;;;24.36;48.58
48424;BME280;34232;42.502;26.014;2022-08-11T01:42:06;99934.81;;;23.50;51.63
48424;BME280;34232;42.502;26.014;2022-08-11T01:45:06;99936.91;;;23.48;51.76
48424;BME280;34232;42.502;26.014;2022-08-11T01:58:22;99934.41;;;23.47;50.13
48424;BME280;34232;42.502;26.014;2022-08-11T02:03:36;99945.63;;;23.37;48.58
48424;BME280;34232;42.502;26.014;2022-08-11T02:06:08;99933.22;;;23.36;48.90
48424;BME280;34232;42.502;26.014;2022-08-11T02:09:01;99932.41;;;23.35;48.24
48424;BME280;34232;42.502;26.014;2022-08-11T02:11:32;99936.94;;;23.35;47.94
48424;BME280;34232;42.502;26.014;2022-08-11T02:22:22;99928.59;;;23.56;47.22
48424;BME280;34232;42.502;26.014;2022-08-11T02:25:07;99928.59;;;23.63;47.52
48424;BME280;34232;42.502;26.014;2022-08-11T02:27:40;99922.78;;;23.66;47.73
48424;BME280;34232;42.502;26.014;2022-08-11T02:30:11;99931.06;;;23.64;47.42
48424;BME280;34232;42.502;26.014;2022-08-11T02:32:50;99929.41;;;23.63;47.32
48424;BME280;34232;42.502;26.014;2022-08-11T02:35:45;99933.94;;;23.69;47.05
48424;BME280;34232;42.502;26.014;2022-08-11T02:43:27;99926.88;;;23.75;47.07
48424;BME280;34232;42.502;26.014;2022-08-11T02:48:39;99937.22;;;23.71;47.18
48424;BME280;34232;42.502;26.014;2022-08-11T02:51:41;99925.69;;;23.64;47.98
48424;BME280;34232;42.502;26.014;2022-08-11T02:57:04;99930.72;;;23.41;48.35
48424;BME280;34232;42.502;26.014;2022-08-11T02:59:47;99924.97;;;23.31;49.00
48424;BME280;34232;42.502;26.014;2022-08-11T03:02:37;99934.75;;;23.12;49.39
48424;BME280;34232;42.502;26.014;2022-08-11T03:21:32;99951.91;;;22.98;50.33
48424;BME280;34232;42.502;26.014;2022-08-11T03:26:38;99961.84;;;23.04;49.98
48424;BME280;34232;42.502;26.014;2022-08-11T03:31:48;99951.25;;;23.09;50.08
48424;BME280;34232;42.502;26.014;2022-08-11T03:34:32;99951.69;;;23.13;50.15
48424;BME280;34232;42.502;26.014;2022-08-11T03:47:11;99960.56;;;23.20;49.49
48424;BME280;34232;42.502;26.014;2022-08-11T03:49:56;99955.56;;;23.23;49.79
48424;BME280;34232;42.502;26.014;2022-08-11T04:15:12;99975.59;;;23.27;49.54
48424;BME280;34232;42.502;26.014;2022-08-11T04:21:04;99969.19;;;23.28;49.14
48424;BME280;34232;42.502;26.014;2022-08-11T04:23:55;99972.72;;;23.35;48.71
48424;BME280;34232;42.502;26.014;2022-08-11T04:31:34;99991.47;;;23.49;49.46
48424;BME280;34232;42.502;26.014;2022-08-11T04:47:20;99968.09;;;23.49;47.67
48424;BME280;34232;42.502;26.014;2022-08-11T05:01:31;99963.38;;;23.45;48.13
48424;BME280;34232;42.502;26.014;2022-08-11T05:07:00;99963.78;;;23.42;48.25
48424;BME280;34232;42.502;26.014;2022-08-11T05:09:54;99965.00;;;23.46;47.86
48424;BME280;34232;42.502;26.014;2022-08-11T05:14:48;99963.56;;;23.50;47.34
48424;BME280;34232;42.502;26.014;2022-08-11T05:20:47;99964.19;;;23.45;48.61
48424;BME280;34232;42.502;26.014;2022-08-11T05:23:32;99963.78;;;23.48;48.40
48424;BME280;34232;42.502;26.014;2022-08-11T05:26:16;99971.44;;;23.51;48.54
48424;BME280;34232;42.502;26.014;2022-08-11T05:29:02;99974.50;;;23.55;48.34
48424;BME280;34232;42.502;26.014;2022-08-11T05:31:49;99967.88;;;23.64;48.33
48424;BME280;34232;42.502;26.014;2022-08-11T05:34:40;99966.97;;;23.83;47.78
48424;BME280;34232;42.502;26.014;2022-08-11T05:37:21;99978.00;;;24.06;47.13
48424;BME280;34232;42.502;26.014;2022-08-11T05:39:52;99968.97;;;24.32;47.21
48424;BME280;34232;42.502;26.014;2022-08-11T05:42:38;99967.72;;;24.60;46.39
48424;BME280;34232;42.502;26.014;2022-08-11T05:45:25;99978.66;;;24.90;45.73
48424;BME280;34232;42.502;26.014;2022-08-11T05:48:09;99982.19;;;25.15;45.62
48424;BME280;34232;42.502;26.014;2022-08-11T05:50:54;99976.44;;;25.48;44.61
48424;BME280;34232;42.502;26.014;2022-08-11T05:53:47;99971.94;;;25.78;43.56
48424;BME280;34232;42.502;26.014;2022-08-11T05:56:32;99974.84;;;26.07;42.88
48424;BME280;34232;42.502;26.014;2022-08-11T05:58:57;99974.50;;;26.33;42.77
48424;BME280;34232;42.502;26.014;2022-08-11T06:01:24;99969.75;;;26.59;42.87
48424;BME280;34232;42.502;26.014;2022-08-11T06:03:51;99967.75;;;26.89;42.05
48424;BME280;34232;42.502;26.014;2022-08-11T06:06:36;99957.66;;;27.20;40.29
48424;BME280;34232;42.502;26.014;2022-08-11T06:09:04;99960.00;;;27.28;39.90
48424;BME280;34232;42.502;26.014;2022-08-11T06:11:29;99955.38;;;27.51;40.51
48424;BME280;34232;42.502;26.014;2022-08-11T06:13:56;99955.59;;;27.62;39.80
48424;BME280;34232;42.502;26.014;2022-08-11T06:16:23;99957.47;;;27.73;39.41
48424;BME280;34232;42.502;26.014;2022-08-11T06:18:52;99956.94;;;27.88;39.55
48424;BME280;34232;42.502;26.014;2022-08-11T06:21:18;99963.41;;;27.86;40.18
48424;BME280;34232;42.502;26.014;2022-08-11T06:23:44;99960.88;;;27.97;38.85
48424;BME280;34232;42.502;26.014;2022-08-11T06:26:10;99960.56;;;28.10;39.34
48424;BME280;34232;42.502;26.014;2022-08-11T06:28:37;99954.50;;;28.03;37.66
48424;BME280;34232;42.502;26.014;2022-08-11T06:31:21;99960.03;;;28.08;37.89
48424;BME280;34232;42.502;26.014;2022-08-11T06:39:06;99956.22;;;28.37;37.59
48424;BME280;34232;42.502;26.014;2022-08-11T06:41:38;99951.22;;;28.46;36.73
48424;BME280;34232;42.502;26.014;2022-08-11T06:46:46;99955.47;;;28.59;36.14
48424;BME280;34232;42.502;26.014;2022-08-11T06:49:13;99959.44;;;28.68;35.75
48424;BME280;34232;42.502;26.014;2022-08-11T06:52:01;99957.78;;;28.67;36.71
48424;BME280;34232;42.502;26.014;2022-08-11T06:54:31;99963.31;;;28.72;36.40
48424;BME280;34232;42.502;26.014;2022-08-11T06:56:57;99964.06;;;28.84;36.43
48424;BME280;34232;42.502;26.014;2022-08-11T06:59:42;99958.72;;;28.89;35.14
48424;BME280;34232;42.502;26.014;2022-08-11T07:02:30;99959.22;;;28.86;35.10
48424;BME280;34232;42.502;26.014;2022-08-11T07:05:19;99955.00;;;28.95;35.81
48424;BME280;34232;42.502;26.014;2022-08-11T07:13:43;99962.63;;;29.37;34.95
48424;BME280;34232;42.502;26.014;2022-08-11T07:22:33;99971.44;;;29.66;34.40
48424;BME280;34232;42.502;26.014;2022-08-11T07:25:18;99968.56;;;29.77;34.31
48424;BME280;34232;42.502;26.014;2022-08-11T07:28:03;99976.88;;;29.92;34.47
48424;BME280;34232;42.502;26.014;2022-08-11T07:30:47;99969.44;;;30.05;34.25
48424;BME280;34232;42.502;26.014;2022-08-11T07:33:18;99959.63;;;29.99;33.70
48424;BME280;34232;42.502;26.014;2022-08-11T07:35:50;99975.81;;;30.15;33.31
48424;BME280;34232;42.502;26.014;2022-08-11T07:38:21;99962.38;;;30.31;33.34
48424;BME280;34232;42.502;26.014;2022-08-11T07:40:47;99967.97;;;30.51;33.18
48424;BME280;34232;42.502;26.014;2022-08-11T07:43:12;99962.38;;;30.63;33.33
48424;BME280;34232;42.502;26.014;2022-08-11T07:45:44;99961.06;;;30.70;32.78
48424;BME280;34232;42.502;26.014;2022-08-11T07:48:28;99959.81;;;30.83;33.11
48424;BME280;34232;42.502;26.014;2022-08-11T07:51:16;99957.94;;;30.88;32.71
48424;BME280;34232;42.502;26.014;2022-08-11T07:54:01;99958.81;;;30.94;32.49
48424;BME280;34232;42.502;26.014;2022-08-11T07:56:26;99944.19;;;31.05;32.31
48424;BME280;34232;42.502;26.014;2022-08-11T07:58:51;99945.88;;;31.11;32.71
48424;BME280;34232;42.502;26.014;2022-08-11T08:01:37;99941.56;;;31.15;33.04
48424;BME280;34232;42.502;26.014;2022-08-11T08:04:20;99939.38;;;31.17;31.47
48424;BME280;34232;42.502;26.014;2022-08-11T08:07:04;99934.56;;;31.35;31.67
48424;BME280;34232;42.502;26.014;2022-08-11T08:09:51;99937.56;;;31.38;31.84
48424;BME280;34232;42.502;26.014;2022-08-11T08:12:35;99934.09;;;31.48;32.08
48424;BME280;34232;42.502;26.014;2022-08-11T08:15:21;99932.22;;;31.63;31.67
48424;BME280;34232;42.502;26.014;2022-08-11T08:18:05;99935.03;;;31.79;31.22
48424;BME280;34232;42.502;26.014;2022-08-11T08:20:33;99941.31;;;31.89;31.18
48424;BME280;34232;42.502;26.014;2022-08-11T08:22:59;99936.69;;;32.00;30.86
48424;BME280;34232;42.502;26.014;2022-08-11T08:25:26;99928.53;;;32.05;30.42
48424;BME280;34232;42.502;26.014;2022-08-11T08:27:52;99933.97;;;32.15;31.97
48424;BME280;34232;42.502;26.014;2022-08-11T08:30:18;99932.94;;;32.26;30.74
48424;BME280;34232;42.502;26.014;2022-08-11T08:33:02;99937.56;;;32.41;30.25
48424;BME280;34232;42.502;26.014;2022-08-11T08:35:28;99943.00;;;32.51;29.51
48424;BME280;34232;42.502;26.014;2022-08-11T08:37:56;99942.44;;;32.64;29.85
48424;BME280;34232;42.502;26.014;2022-08-11T08:40:23;99937.31;;;32.73;29.60
48424;BME280;34232;42.502;26.014;2022-08-11T08:42:51;99938.09;;;32.89;30.10
48424;BME280;34232;42.502;26.014;2022-08-11T08:45:18;99923.38;;;32.90;29.51
48424;BME280;34232;42.502;26.014;2022-08-11T08:47:46;99937.28;;;32.88;29.71
48424;BME280;34232;42.502;26.014;2022-08-11T08:50:16;99928.81;;;32.95;29.20
48424;BME280;34232;42.502;26.014;2022-08-11T08:52:52;99927.69;;;33.01;29.55
48424;BME280;34232;42.502;26.014;2022-08-11T08:55:18;99928.19;;;33.13;29.18
48424;BME280;34232;42.502;26.014;2022-08-11T08:57:45;99926.53;;;33.22;28.46
48424;BME280;34232;42.502;26.014;2022-08-11T09:00:13;99922.19;;;33.21;29.03
48424;BME280;34232;42.502;26.014;2022-08-11T09:02:39;99926.03;;;33.25;29.19
48424;BME280;34232;42.502;26.014;2022-08-11T09:05:05;99913.44;;;33.19;27.95
48424;BME280;34232;42.502;26.014;2022-08-11T09:07:33;99908.53;;;33.21;28.20
48424;BME280;34232;42.502;26.014;2022-08-11T09:09:58;99914.53;;;33.28;29.15
48424;BME280;34232;42.502;26.014;2022-08-11T09:12:27;99909.53;;;33.46;28.37
48424;BME280;34232;42.502;26.014;2022-08-11T09:14:54;99902.69;;;33.48;27.81
48424;BME280;34232;42.502;26.014;2022-08-11T09:17:30;99898.56;;;33.56;28.06
48424;BME280;34232;42.502;26.014;2022-08-11T09:19:57;99898.13;;;33.39;27.39
48424;BME280;34232;42.502;26.014;2022-08-11T09:22:27;99896.69;;;33.51;28.34
48424;BME280;34232;42.502;26.014;2022-08-11T09:25:11;99896.34;;;33.63;28.17
48424;BME280;34232;42.502;26.014;2022-08-11T09:27:55;99900.13;;;33.72;28.47
48424;BME280;34232;42.502;26.014;2022-08-11T09:30:22;99899.59;;;33.65;27.79
48424;BME280;34232;42.502;26.014;2022-08-11T09:32:51;99906.13;;;33.74;27.70
48424;BME280;34232;42.502;26.014;2022-08-11T09:35:18;99896.78;;;33.85;27.20
48424;BME280;34232;42.502;26.014;2022-08-11T09:37:45;99894.88;;;33.86;27.31
48424;BME280;34232;42.502;26.014;2022-08-11T09:40:29;99898.13;;;33.88;27.00
48424;BME280;34232;42.502;26.014;2022-08-11T09:42:55;99892.69;;;33.83;27.18
48424;BME280;34232;42.502;26.014;2022-08-11T09:45:39;99891.88;;;33.82;27.65
48424;BME280;34232;42.502;26.014;2022-08-11T09:48:04;99890.19;;;33.91;27.80
48424;BME280;34232;42.502;26.014;2022-08-11T09:50:32;99895.31;;;33.98;27.19
48424;BME280;34232;42.502;26.014;2022-08-11T09:52:58;99884.72;;;33.91;27.18
48424;BME280;34232;42.502;26.014;2022-08-11T09:55:23;99873.91;;;34.10;27.55
48424;BME280;34232;42.502;26.014;2022-08-11T09:57:49;99871.91;;;34.21;26.71
48424;BME280;34232;42.502;26.014;2022-08-11T10:00:33;99868.56;;;34.29;27.13
48424;BME280;34232;42.502;26.014;2022-08-11T10:03:08;99875.41;;;34.26;27.11
48424;BME280;34232;42.502;26.014;2022-08-11T10:05:34;99879.75;;;34.32;27.27
48424;BME280;34232;42.502;26.014;2022-08-11T10:08:20;99866.06;;;34.37;27.16
48424;BME280;34232;42.502;26.014;2022-08-11T10:10:46;99859.69;;;34.42;26.38
48424;BME280;34232;42.502;26.014;2022-08-11T10:13:15;99872.34;;;34.62;26.77
48424;BME280;34232;42.502;26.014;2022-08-11T10:15:41;99864.59;;;34.74;26.09
48424;BME280;34232;42.502;26.014;2022-08-11T10:18:10;99861.31;;;34.72;25.79
48424;BME280;34232;42.502;26.014;2022-08-11T10:20:59;99864.75;;;34.88;25.76
48424;BME280;34232;42.502;26.014;2022-08-11T10:23:26;99868.91;;;35.04;25.30
48424;BME280;34232;42.502;26.014;2022-08-11T10:26:12;99862.41;;;35.00;25.61
48424;BME280;34232;42.502;26.014;2022-08-11T10:28:56;99866.56;;;35.16;25.20
48424;BME280;34232;42.502;26.014;2022-08-11T10:31:21;99866.38;;;35.07;24.55
48424;BME280;34232;42.502;26.014;2022-08-11T10:34:08;99861.44;;;35.09;26.14
48424;BME280;34232;42.502;26.014;2022-08-11T10:36:35;99863.78;;;35.21;27.21
48424;BME280;34232;42.502;26.014;2022-08-11T10:39:27;99862.50;;;35.37;26.48
48424;BME280;34232;42.502;26.014;2022-08-11T10:41:53;99863.22;;;35.43;26.23
48424;BME280;34232;42.502;26.014;2022-08-11T10:44:42;99860.03;;;35.36;25.76
48424;BME280;34232;42.502;26.014;2022-08-11T10:47:09;99861.69;;;35.37;25.51
48424;BME280;34232;42.502;26.014;2022-08-11T10:49:53;99863.16;;;35.24;25.51
48424;BME280;34232;42.502;26.014;2022-08-11T10:52:38;99859.41;;;35.20;24.75
48424;BME280;34232;42.502;26.014;2022-08-11T10:55:22;99846.78;;;35.00;25.26
48424;BME280;34232;42.502;26.014;2022-08-11T10:58:06;99846.59;;;34.92;26.25
48424;BME280;34232;42.502;26.014;2022-08-11T11:00:51;99854.00;;;35.15;26.27
48424;BME280;34232;42.502;26.014;2022-08-11T11:03:20;99846.41;;;35.07;26.04
48424;BME280;34232;42.502;26.014;2022-08-11T11:05:46;99840.34;;;35.10;25.35
48424;BME280;34232;42.502;26.014;2022-08-11T11:08:16;99847.00;;;35.28;26.00
48424;BME280;34232;42.502;26.014;2022-08-11T11:11:03;99843.97;;;35.29;25.29
48424;BME280;34232;42.502;26.014;2022-08-11T11:13:30;99840.13;;;35.49;25.77
48424;BME280;34232;42.502;26.014;2022-08-11T11:16:16;99834.13;;;35.66;25.25
48424;BME280;34232;42.502;26.014;2022-08-11T11:19:01;99839.41;;;35.81;25.17
48424;BME280;34232;42.502;26.014;2022-08-11T11:21:29;99836.19;;;35.93;24.30
48424;BME280;34232;42.502;26.014;2022-08-11T11:26:43;99831.78;;;35.78;24.83
48424;BME280;34232;42.502;26.014;2022-08-11T11:37:33;99829.66;;;34.66;27.16
48424;BME280;34232;42.502;26.014;2022-08-11T11:39:59;99832.78;;;34.54;27.43
48424;BME280;34232;42.502;26.014;2022-08-11T11:42:25;99835.78;;;34.29;26.96
48424;BME280;34232;42.502;26.014;2022-08-11T11:44:51;99840.81;;;34.12;27.91
48424;BME280;34232;42.502;26.014;2022-08-11T11:47:17;99834.38;;;33.97;28.77
48424;BME280;34232;42.502;26.014;2022-08-11T11:49:47;99847.59;;;33.85;29.55
48424;BME280;34232;42.502;26.014;2022-08-11T11:52:14;99842.88;;;33.57;29.25
48424;BME280;34232;42.502;26.014;2022-08-11T11:54:42;99828.22;;;33.43;29.29
48424;BME280;34232;42.502;26.014;2022-08-11T11:57:07;99833.47;;;33.24;29.78
48424;BME280;34232;42.502;26.014;2022-08-11T11:59:59;99830.00;;;33.03;29.05
48424;BME280;34232;42.502;26.014;2022-08-11T12:02:43;99830.56;;;33.00;29.11
48424;BME280;34232;42.502;26.014;2022-08-11T12:05:09;99829.81;;;32.89;29.88
48424;BME280;34232;42.502;26.014;2022-08-11T12:07:34;99825.72;;;32.92;30.50
48424;BME280;34232;42.502;26.014;2022-08-11T12:10:18;99826.25;;;32.94;30.39
48424;BME280;34232;42.502;26.014;2022-08-11T12:12:44;99825.44;;;32.93;30.16
48424;BME280;34232;42.502;26.014;2022-08-11T12:15:28;99824.63;;;32.88;30.41
48424;BME280;34232;42.502;26.014;2022-08-11T12:17:54;99833.06;;;32.91;30.26
48424;BME280;34232;42.502;26.014;2022-08-11T12:20:20;99822.69;;;32.93;31.68
48424;BME280;34232;42.502;26.014;2022-08-11T12:22:46;99826.22;;;32.99;31.27
48424;BME280;34232;42.502;26.014;2022-08-11T12:28:33;99819.19;;;32.83;30.53
48424;BME280;34232;42.502;26.014;2022-08-11T12:30:59;99815.34;;;32.89;30.41
48424;BME280;34232;42.502;26.014;2022-08-11T12:33:24;99821.34;;;32.91;29.46
48424;BME280;34232;42.502;26.014;2022-08-11T12:35:51;99815.28;;;33.04;30.09
48424;BME280;34232;42.502;26.014;2022-08-11T12:38:20;99820.44;;;33.11;29.64
48424;BME280;34232;42.502;26.014;2022-08-11T12:40:47;99813.03;;;33.16;30.69
48424;BME280;34232;42.502;26.014;2022-08-11T12:43:31;99811.09;;;33.22;30.28
48424;BME280;34232;42.502;26.014;2022-08-11T12:46:20;99807.56;;;33.26;29.41
48424;BME280;34232;42.502;26.014;2022-08-11T12:49:08;99811.38;;;33.25;29.52
48424;BME280;34232;42.502;26.014;2022-08-11T12:51:53;99799.59;;;33.35;29.12
48424;BME280;34232;42.502;26.014;2022-08-11T12:54:27;99798.75;;;33.34;28.55
48424;BME280;34232;42.502;26.014;2022-08-11T12:56:59;99799.38;;;33.26;29.35
48424;BME280;34232;42.502;26.014;2022-08-11T12:59:43;99800.69;;;33.29;28.68
48424;BME280;34232;42.502;26.014;2022-08-11T13:02:28;99790.56;;;33.40;29.22
48424;BME280;34232;42.502;26.014;2022-08-11T13:05:12;99797.09;;;33.44;28.81
48424;BME280;34232;42.502;26.014;2022-08-11T13:07:39;99793.94;;;33.16;29.19
48424;BME280;34232;42.502;26.014;2022-08-11T13:10:07;99795.28;;;33.19;30.14
48424;BME280;34232;42.502;26.014;2022-08-11T13:12:33;99801.84;;;33.13;29.93
48424;BME280;34232;42.502;26.014;2022-08-11T13:15:18;99809.19;;;33.22;29.11
48424;BME280;34232;42.502;26.014;2022-08-11T13:17:44;99792.53;;;33.24;29.13
48424;BME280;34232;42.502;26.014;2022-08-11T13:20:11;99794.44;;;33.23;28.34
48424;BME280;34232;42.502;26.014;2022-08-11T13:22:38;99800.47;;;33.25;29.14
48424;BME280;34232;42.502;26.014;2022-08-11T13:25:04;99792.53;;;33.24;29.44
48424;BME280;34232;42.502;26.014;2022-08-11T13:27:30;99797.16;;;33.28;28.95
48424;BME280;34232;42.502;26.014;2022-08-11T13:29:55;99795.56;;;33.17;28.85
48424;BME280;34232;42.502;26.014;2022-08-11T13:32:40;99801.56;;;33.14;29.24
48424;BME280;34232;42.502;26.014;2022-08-11T13:35:06;99806.50;;;33.12;28.84
48424;BME280;34232;42.502;26.014;2022-08-11T13:37:32;99800.47;;;33.15;29.12
48424;BME280;34232;42.502;26.014;2022-08-11T13:39:59;99805.94;;;33.15;29.44
48424;BME280;34232;42.502;26.014;2022-08-11T13:42:26;99797.22;;;33.13;29.67
48424;BME280;34232;42.502;26.014;2022-08-11T13:44:52;99797.25;;;33.08;29.95
48424;BME280;34232;42.502;26.014;2022-08-11T13:47:17;99806.50;;;33.12;30.16
48424;BME280;34232;42.502;26.014;2022-08-11T13:49:46;99794.53;;;33.08;29.53
48424;BME280;34232;42.502;26.014;2022-08-11T13:52:12;99796.16;;;33.09;29.33
48424;BME280;34232;42.502;26.014;2022-08-11T13:54:38;99803.28;;;33.00;29.74
48424;BME280;34232;42.502;26.014;2022-08-11T13:57:07;99799.47;;;33.01;29.39
48424;BME280;34232;42.502;26.014;2022-08-11T13:59:32;99794.09;;;32.81;29.40
48424;BME280;34232;42.502;26.014;2022-08-11T14:01:59;99796.31;;;32.79;29.71
48424;BME280;34232;42.502;26.014;2022-08-11T14:04:29;99799.53;;;32.81;29.53
48424;BME280;34232;42.502;26.014;2022-08-11T14:06:57;99787.31;;;32.73;29.64
48424;BME280;34232;42.502;26.014;2022-08-11T14:09:29;99786.22;;;32.79;29.86
48424;BME280;34232;42.502;26.014;2022-08-11T14:11:57;99783.75;;;32.78;29.67
48424;BME280;34232;42.502;26.014;2022-08-11T14:14:42;99785.38;;;32.68;29.47
48424;BME280;34232;42.502;26.014;2022-08-11T14:17:11;99777.78;;;32.60;29.56
48424;BME280;34232;42.502;26.014;2022-08-11T14:19:40;99776.16;;;32.59;30.12
48424;BME280;34232;42.502;26.014;2022-08-11T14:22:06;99779.72;;;32.60;30.54
48424;BME280;34232;42.502;26.014;2022-08-11T14:24:33;99780.00;;;32.53;28.87
48424;BME280;34232;42.502;26.014;2022-08-11T14:26:59;99778.34;;;32.47;29.86
48424;BME280;34232;42.502;26.014;2022-08-11T14:29:25;99787.16;;;32.29;29.42
48424;BME280;34232;42.502;26.014;2022-08-11T14:31:58;99784.16;;;32.25;29.29
48424;BME280;34232;42.502;26.014;2022-08-11T14:34:26;99786.88;;;32.25;29.48
48424;BME280;34232;42.502;26.014;2022-08-11T14:36:58;99787.97;;;32.19;30.34
48424;BME280;34232;42.502;26.014;2022-08-11T14:39:25;99787.13;;;32.19;29.91
48424;BME280;34232;42.502;26.014;2022-08-11T14:41:52;99788.22;;;32.03;30.41
48424;BME280;34232;42.502;26.014;2022-08-11T14:44:42;99788.25;;;31.87;30.15
48424;BME280;34232;42.502;26.014;2022-08-11T14:47:26;99789.06;;;31.93;30.03
48424;BME280;34232;42.502;26.014;2022-08-11T14:49:54;99785.50;;;31.87;30.45
48424;BME280;34232;42.502;26.014;2022-08-11T14:52:19;99787.69;;;31.85;30.81
48424;BME280;34232;42.502;26.014;2022-08-11T14:54:46;99783.34;;;31.94;30.62
48424;BME280;34232;42.502;26.014;2022-08-11T14:57:31;99784.72;;;31.97;30.46
48424;BME280;34232;42.502;26.014;2022-08-11T14:59:59;99784.72;;;31.97;30.75
48424;BME280;34232;42.502;26.014;2022-08-11T15:02:25;99786.34;;;31.88;30.71
48424;BME280;34232;42.502;26.014;2022-08-11T15:05:10;99775.16;;;31.84;30.59
48424;BME280;34232;42.502;26.014;2022-08-11T15:07:36;99780.63;;;31.74;30.52
48424;BME280;34232;42.502;26.014;2022-08-11T15:10:02;99778.72;;;31.70;30.45
48424;BME280;34232;42.502;26.014;2022-08-11T15:12:28;99783.56;;;31.57;31.13
48424;BME280;34232;42.502;26.014;2022-08-11T15:14:55;99781.66;;;31.53;31.19
48424;BME280;34232;42.502;26.014;2022-08-11T15:17:40;99778.13;;;31.42;31.29
48424;BME280;34232;42.502;26.014;2022-08-11T15:20:09;99778.13;;;31.42;31.33
48424;BME280;34232;42.502;26.014;2022-08-11T15:22:53;99774.03;;;31.40;31.74
48424;BME280;34232;42.502;26.014;2022-08-11T15:25:37;99782.75;;;31.42;31.50
48424;BME280;34232;42.502;26.014;2022-08-11T15:28:05;99777.84;;;31.39;31.78
48424;BME280;34232;42.502;26.014;2022-08-11T15:30:55;99776.22;;;31.33;31.70
48424;BME280;34232;42.502;26.014;2022-08-11T15:33:39;99780.28;;;31.30;31.88
48424;BME280;34232;42.502;26.014;2022-08-11T15:36:24;99778.06;;;31.22;32.16
48424;BME280;34232;42.502;26.014;2022-08-11T15:39:20;99774.53;;;31.21;32.30
48424;BME280;34232;42.502;26.014;2022-08-11T15:41:50;99774.47;;;31.06;31.63
48424;BME280;34232;42.502;26.014;2022-08-11T15:44:38;99772.53;;;31.02;32.63
48424;BME280;34232;42.502;26.014;2022-08-11T15:47:34;99771.69;;;30.91;32.15
48424;BME280;34232;42.502;26.014;2022-08-11T15:50:00;99773.56;;;30.85;32.44
48424;BME280;34232;42.502;26.014;2022-08-11T15:52:29;99777.09;;;30.81;32.66
48424;BME280;34232;42.502;26.014;2022-08-11T15:54:55;99780.63;;;30.76;32.30
48424;BME280;34232;42.502;26.014;2022-08-11T15:57:23;99779.16;;;30.58;32.55
48424;BME280;34232;42.502;26.014;2022-08-11T16:00:08;99782.38;;;30.50;33.12
48424;BME280;34232;42.502;26.014;2022-08-11T16:02:52;99788.81;;;30.39;33.56
48424;BME280;34232;42.502;26.014;2022-08-11T16:05:19;99789.31;;;30.31;33.27
48424;BME280;34232;42.502;26.014;2022-08-11T16:07:45;99791.41;;;30.19;33.46
48424;BME280;34232;42.502;26.014;2022-08-11T16:10:14;99788.13;;;30.17;33.17
48424;BME280;34232;42.502;26.014;2022-08-11T16:13:06;99789.78;;;30.18;33.57
48424;BME280;34232;42.502;26.014;2022-08-11T16:15:38;99793.03;;;30.20;33.45
48424;BME280;34232;42.502;26.014;2022-08-11T16:18:28;99796.75;;;30.09;33.43
48424;BME280;34232;42.502;26.014;2022-08-11T16:21:06;99795.13;;;30.08;33.58
48424;BME280;34232;42.502;26.014;2022-08-11T16:23:32;99795.09;;;30.03;33.62
48424;BME280;34232;42.502;26.014;2022-08-11T16:25:58;99796.69;;;29.99;33.71
48424;BME280;34232;42.502;26.014;2022-08-11T16:28:25;99805.75;;;29.82;33.84
48424;BME280;34232;42.502;26.014;2022-08-11T16:30:51;99803.03;;;29.82;33.84
48424;BME280;34232;42.502;26.014;2022-08-11T16:33:18;99805.41;;;29.74;33.86
48424;BME280;34232;42.502;26.014;2022-08-11T16:35:44;99804.56;;;29.68;33.90
48424;BME280;34232;42.502;26.014;2022-08-11T16:38:30;99809.16;;;29.68;33.98
48424;BME280;34232;42.502;26.014;2022-08-11T16:41:12;99804.00;;;29.66;34.47
48424;BME280;34232;42.502;26.014;2022-08-11T16:43:41;99815.34;;;29.63;34.81
48424;BME280;34232;42.502;26.014;2022-08-11T16:46:26;99807.47;;;29.62;34.09
48424;BME280;34232;42.502;26.014;2022-08-11T16:49:11;99820.69;;;29.53;34.22
48424;BME280;34232;42.502;26.014;2022-08-11T16:51:37;99824.66;;;29.45;34.56
48424;BME280;34232;42.502;26.014;2022-08-11T16:54:02;99822.22;;;29.44;34.83
48424;BME280;34232;42.502;26.014;2022-08-11T16:56:38;99831.09;;;29.39;35.46
48424;BME280;34232;42.502;26.014;2022-08-11T16:59:08;99830.22;;;29.34;35.65
48424;BME280;34232;42.502;26.014;2022-08-11T17:01:55;99828.97;;;29.41;35.85
48424;BME280;34232;42.502;26.014;2022-08-11T17:04:46;99823.66;;;29.30;35.11
48424;BME280;34232;42.502;26.014;2022-08-11T17:07:26;99836.66;;;29.28;35.45